Time;durP1;ratioP1;P1;durP2;ratioP2;P2;SDS_P1;SDS_P2;PMS_P1;PMS_P2;Temp;Humidity;BMP_temperature;BMP_pressure;BME280_temperature;BME280_humidity;BME280_pressure;Samples;Min_cycle;Max_cycle;Signal;HPM_P1;HPM_P2
2023/12/01 00:02:06;;;;;;;366.60;105.30;;;;;;;-6.61;100.00;98060.60;104017;1283;60571;-30
2023/12/01 00:04:32;;;;;;;725.20;296.40;;;;;;;-6.45;100.00;98071.55;103911;1283;74094;-30
2023/12/01 00:06:57;;;;;;;880.50;363.60;;;;;;;-6.30;100.00;98079.60;103848;1282;60478;-32
2023/12/01 00:09:23;;;;;;;471.40;164.80;;;;;;;-6.20;100.00;98078.73;103934;1283;60568;-30
2023/12/01 00:11:49;;;;;;;441.50;142.50;;;;;;;-6.12;100.00;98074.92;103877;1283;60590;-30
2023/12/01 00:14:15;;;;;;;373.70;117.20;;;;;;;-5.99;100.00;98075.44;103870;1283;60556;-32
2023/12/01 00:16:41;;;;;;;417.30;130.00;;;;;;;-5.84;100.00;98075.61;103744;1283;60536;-32
2023/12/01 00:19:07;;;;;;;460.50;141.30;;;;;;;-5.82;100.00;98065.50;103935;1281;60510;-35
2023/12/01 00:21:32;;;;;;;429.50;129.90;;;;;;;-5.84;100.00;98065.31;103902;1283;60482;-30
2023/12/01 00:23:58;;;;;;;444.80;129.90;;;;;;;-5.83;100.00;98066.82;103891;1284;60491;-30
2023/12/01 00:26:24;;;;;;;432.70;127.00;;;;;;;-5.85;100.00;98072.21;104091;1283;60559;-32
2023/12/01 00:28:50;;;;;;;397.10;112.10;;;;;;;-5.91;100.00;98075.13;103970;1283;60574;-32
2023/12/01 00:31:16;;;;;;;;;;;;;;;-5.95;100.00;98088.40;103892;1283;60541;-32
2023/12/01 00:33:41;;;;;;;407.60;119.90;;;;;;;-6.05;100.00;98101.09;103832;1281;60658;-29
2023/12/01 00:36:08;;;;;;;407.60;121.90;;;;;;;-6.16;100.00;98107.30;103878;1283;60555;-33
2023/12/01 00:38:34;;;;;;;440.20;134.10;;;;;;;-6.18;100.00;98100.73;103737;1285;60613;-33
2023/12/01 00:41:00;;;;;;;451.20;138.50;;;;;;;-6.26;100.00;98093.88;103895;1285;60568;-33
2023/12/01 00:43:26;;;;;;;381.60;111.50;;;;;;;-6.40;100.00;98090.83;103895;1283;60454;-29
2023/12/01 00:45:52;;;;;;;333.50;96.60;;;;;;;-6.54;100.00;98079.04;103862;1282;60601;-32
2023/12/01 00:48:18;;;;;;;359.40;102.30;;;;;;;-6.56;100.00;98063.71;103900;1284;60546;-30
2023/12/01 00:50:43;;;;;;;290.90;90.10;;;;;;;-6.64;100.00;98060.14;103745;1285;60516;-30
2023/12/01 00:53:09;;;;;;;255.40;77.30;;;;;;;-6.76;100.00;98069.48;103589;1283;60492;-33
2023/12/01 00:55:35;;;;;;;282.20;83.10;;;;;;;-6.84;100.00;98075.79;103690;1283;60556;-31
2023/12/01 00:58:02;;;;;;;268.80;78.20;;;;;;;-6.88;100.00;98082.25;103755;1283;73541;-30
2023/12/01 01:00:28;;;;;;;284.70;84.80;;;;;;;-6.91;100.00;98072.54;103755;1282;68103;-30
2023/12/01 01:02:54;;;;;;;293.90;85.70;;;;;;;-6.96;100.00;98064.41;103759;1283;60535;-31
2023/12/01 01:05:20;;;;;;;296.90;84.90;;;;;;;-7.00;100.00;98062.48;103811;1285;61006;-30
2023/12/01 01:07:46;;;;;;;;;;;;;;;-7.03;100.00;98061.14;103936;1285;60460;-30
2023/12/01 01:10:11;;;;;;;276.40;81.20;;;;;;;-7.10;100.00;98057.81;103807;1286;60655;-30
2023/12/01 01:12:37;;;;;;;274.30;78.10;;;;;;;-7.12;100.00;98058.64;103868;1284;60574;-30
2023/12/01 01:15:03;;;;;;;298.60;86.20;;;;;;;-7.11;100.00;98066.23;103766;1285;60628;-30
2023/12/01 01:17:33;;;;;;;302.70;89.00;;;;;;;-7.06;100.00;98061.89;103821;1285;60783;-32
2023/12/01 01:19:59;;;;;;;323.70;91.60;;;;;;;-7.03;100.00;98062.19;103696;1285;60517;-32
2023/12/01 01:22:25;;;;;;;242.00;73.90;;;;;;;-7.09;100.00;98065.55;103806;1281;60534;-30
2023/12/01 01:24:52;;;;;;;282.90;86.90;;;;;;;-7.11;100.00;98066.23;103831;1284;60457;-29
2023/12/01 01:27:18;;;;;;;282.50;82.80;;;;;;;-7.14;100.00;98070.34;103708;1283;60571;-29
2023/12/01 01:29:44;;;;;;;352.20;98.40;;;;;;;-7.13;100.00;98082.03;103897;1285;60635;-31
2023/12/01 01:32:10;;;;;;;;;;;;;;;-7.18;100.00;98089.22;103839;1285;60521;-30
2023/12/01 01:34:36;;;;;;;268.30;74.90;;;;;;;-7.19;100.00;98086.18;103753;1283;60558;-31
2023/12/01 01:37:01;;;;;;;264.60;76.50;;;;;;;-7.13;100.00;98069.23;103975;1283;60568;-31
2023/12/01 01:39:27;;;;;;;379.40;98.50;;;;;;;-7.11;100.00;98070.63;103928;1283;60325;-30
2023/12/01 01:41:55;;;;;;;343.50;90.60;;;;;;;-7.20;100.00;98083.51;103879;1283;60551;-33
2023/12/01 01:44:21;;;;;;;337.80;92.70;;;;;;;-7.27;100.00;98091.98;103885;1283;60482;-31
2023/12/01 01:46:47;;;;;;;350.60;93.70;;;;;;;-7.21;100.00;98091.73;103865;1285;60453;-33
2023/12/01 01:49:14;;;;;;;351.30;100.50;;;;;;;-7.29;100.00;98086.58;103839;1285;60568;-33
2023/12/01 01:51:39;;;;;;;343.00;96.80;;;;;;;-7.43;100.00;98083.17;104037;1283;60559;-31
2023/12/01 02:34:21;;;;;;;205.10;64.70;;;;;;;-8.17;100.00;98108.09;103723;1279;611872;-32
2023/12/01 02:36:47;;;;;;;194.30;56.30;;;;;;;-7.93;100.00;98108.63;103480;1283;170501;-31
2023/12/01 02:39:13;;;;;;;249.80;66.80;;;;;;;-7.82;100.00;98111.41;103909;1284;59430;-28
2023/12/01 02:41:39;;;;;;;212.90;59.80;;;;;;;-7.92;100.00;98112.18;103973;1282;59840;-31
2023/12/01 02:44:05;;;;;;;;;;;;;;;-7.95;100.00;98115.52;103904;1280;59341;-32
2023/12/01 02:46:31;;;;;;;172.00;50.00;;;;;;;-7.92;100.00;98114.80;103918;1280;59279;-29
2023/12/01 02:48:57;;;;;;;173.80;48.40;;;;;;;-7.98;100.00;98115.53;103896;1280;59362;-31
2023/12/01 02:51:24;;;;;;;177.80;52.60;;;;;;;-7.98;100.00;98111.89;104058;1284;59404;-30
2023/12/01 02:53:50;;;;;;;192.70;57.10;;;;;;;-7.96;100.00;98103.13;103999;1284;59337;-30
2023/12/01 02:56:16;;;;;;;176.40;57.20;;;;;;;-7.94;100.00;98094.26;103970;1280;59756;-35
2023/12/01 02:58:42;;;;;;;219.60;65.30;;;;;;;-7.98;100.00;98095.59;103201;1280;1002483;-31
2023/12/01 03:01:08;;;;;;;288.50;93.90;;;;;;;-7.92;100.00;98096.02;104071;1284;59762;-30
2023/12/01 03:03:34;;;;;;;;;;;;;;;-7.76;100.00;98095.00;104021;1284;59745;-31
2023/12/01 03:06:00;;;;;;;230.40;69.40;;;;;;;-7.66;100.00;98103.86;103437;1284;1003014;-32
2023/12/01 03:08:26;;;;;;;190.00;60.30;;;;;;;-7.57;100.00;98104.32;103358;1284;1002235;-32
2023/12/01 03:10:53;;;;;;;210.30;68.40;;;;;;;-7.53;100.00;98107.16;103993;1282;71438;-30
2023/12/01 03:13:19;;;;;;;259.90;86.80;;;;;;;-7.56;100.00;98101.85;104065;1284;68484;-31
2023/12/01 03:15:45;;;;;;;297.60;96.10;;;;;;;-7.55;100.00;98092.70;103895;1284;59791;-30
2023/12/01 03:18:10;;;;;;;284.80;84.90;;;;;;;-7.47;100.00;98105.75;104076;1291;59874;-30
2023/12/01 03:20:36;;;;;;;248.60;74.90;;;;;;;-7.38;100.00;98124.48;103544;1284;1001964;-30
2023/12/01 03:23:02;;;;;;;247.00;76.10;;;;;;;-7.26;100.00;98124.98;104182;1283;59674;-32
2023/12/01 03:25:28;;;;;;;264.00;79.10;;;;;;;-7.15;100.00;98122.45;103932;1280;59686;-32
2023/12/01 03:27:54;;;;;;;;;;;;;;;-7.13;100.00;98097.88;103749;1280;59790;-31
2023/12/01 03:30:20;;;;;;;393.10;135.20;;;;;;;-7.16;100.00;98084.02;103941;1280;60311;-30
2023/12/01 03:32:50;;;;;;;268.40;86.40;;;;;;;-7.19;100.00;98079.38;103896;1280;59755;-29
2023/12/01 03:35:17;;;;;;;269.10;89.80;;;;;;;-7.19;100.00;98073.52;103878;1282;59577;-32
2023/12/01 03:37:43;;;;;;;216.90;62.80;;;;;;;-7.18;100.00;98082.95;102319;1280;1003821;-30
2023/12/01 03:40:12;;;;;;;247.40;69.80;;;;;;;-7.18;100.00;98076.41;103905;1280;68319;-30
2023/12/01 03:42:39;;;;;;;229.70;67.10;;;;;;;-7.23;100.00;98081.81;103847;1282;71413;-31
2023/12/01 03:45:06;;;;;;;251.30;73.20;;;;;;;-7.27;100.00;98077.42;103788;1280;59659;-30
2023/12/01 03:47:34;;;;;;;260.10;85.70;;;;;;;-7.30;100.00;98071.20;103801;1282;59770;-29
2023/12/01 03:50:02;;;;;;;172.20;52.30;;;;;;;-7.35;100.00;98066.53;103990;1280;59647;-33
2023/12/01 03:52:27;;;;;;;193.70;58.00;;;;;;;-7.35;100.00;98048.98;104141;1281;70567;-30
2023/12/01 03:54:53;;;;;;;198.00;59.80;;;;;;;-7.31;100.00;98060.80;103292;1282;1002087;-30
2023/12/01 03:57:20;;;;;;;188.00;58.00;;;;;;;-7.31;100.00;98081.85;103965;1282;59756;-30
2023/12/01 03:59:46;;;;;;;184.30;56.10;;;;;;;-7.25;100.00;98098.51;103331;1280;1003077;-32
2023/12/01 04:02:11;;;;;;;187.50;56.20;;;;;;;-7.17;100.00;98098.90;103854;1281;60423;-30
2023/12/01 04:04:38;;;;;;;191.50;54.60;;;;;;;-7.17;100.00;98094.89;103797;1289;60809;-30
2023/12/01 04:07:07;;;;;;;157.90;51.30;;;;;;;-7.15;100.00;98086.38;104014;1285;59801;-30
2023/12/01 04:09:34;;;;;;;218.60;68.60;;;;;;;-7.09;100.00;98086.41;104154;1281;68005;-31
2023/12/01 04:12:00;;;;;;;222.30;66.00;;;;;;;-7.12;100.00;98094.16;103925;1284;71518;-31
2023/12/01 04:14:27;;;;;;;209.70;64.00;;;;;;;-7.21;100.00;98101.66;104095;1282;59714;-35
2023/12/01 04:16:53;;;;;;;241.80;73.80;;;;;;;-7.32;100.00;98095.35;103988;1282;60321;-31
2023/12/01 04:19:19;;;;;;;191.50;55.20;;;;;;;-7.36;100.00;98088.67;104117;1284;59697;-29
2023/12/01 04:21:45;;;;;;;187.30;55.00;;;;;;;-7.44;100.00;98094.34;104016;1298;59776;-32
2023/12/01 04:24:10;;;;;;;159.20;48.90;;;;;;;-7.45;100.00;98103.98;103974;1284;59762;-29
2023/12/01 04:26:36;;;;;;;171.00;53.10;;;;;;;-7.29;100.00;98105.21;103882;1280;60883;-31
2023/12/01 04:29:02;;;;;;;152.40;46.60;;;;;;;-7.16;100.00;98110.27;103968;1291;60579;-29
2023/12/01 04:31:28;;;;;;;130.80;42.00;;;;;;;-7.04;100.00;98108.85;103989;1284;60275;-29
2023/12/01 04:33:55;;;;;;;150.50;48.00;;;;;;;-6.94;100.00;98111.43;104089;1284;59791;-31
2023/12/01 04:36:21;;;;;;;144.00;45.20;;;;;;;-6.86;100.00;98115.13;104106;1284;59733;-33
2023/12/01 04:38:46;;;;;;;125.00;41.90;;;;;;;-6.70;100.00;98108.36;103918;1287;60275;-31
2023/12/01 04:41:12;;;;;;;161.90;52.10;;;;;;;-6.57;100.00;98101.39;104046;1297;59710;-33
2023/12/01 04:43:41;;;;;;;184.00;54.90;;;;;;;-6.50;100.00;98104.17;104154;1291;59792;-33
2023/12/01 04:46:08;;;;;;;168.20;50.30;;;;;;;-6.42;100.00;98102.65;104010;1280;59650;-33
2023/12/01 04:48:34;;;;;;;182.70;54.60;;;;;;;-6.38;100.00;98104.02;103992;1284;70749;-32
2023/12/01 04:51:00;;;;;;;;;;;;;;;-6.31;100.00;98112.58;104056;1284;59759;-30
2023/12/01 04:53:26;;;;;;;185.60;58.00;;;;;;;-6.42;100.00;98120.23;104274;1296;59771;-32
2023/12/01 04:55:51;;;;;;;;;;;;;;;-6.44;100.00;98123.54;104066;1284;59666;-31
2023/12/01 04:58:17;;;;;;;173.40;54.30;;;;;;;-6.41;100.00;98132.99;103993;1284;59711;-31
2023/12/01 05:00:43;;;;;;;;;;;;;;;-6.50;100.00;98134.60;104166;1284;59679;-32
2023/12/01 05:03:10;;;;;;;139.20;44.60;;;;;;;-6.60;100.00;98135.92;104054;1298;59755;-30
2023/12/01 05:05:38;;;;;;;131.70;41.30;;;;;;;-6.60;100.00;98144.39;104015;1284;59762;-31
2023/12/01 05:08:07;;;;;;;151.60;48.50;;;;;;;-6.43;100.00;98143.83;104062;1281;70284;-32
2023/12/01 05:10:33;;;;;;;153.40;49.40;;;;;;;-6.40;100.00;98145.83;104134;1280;60667;-33
2023/12/01 05:13:00;;;;;;;140.30;44.40;;;;;;;-6.31;100.00;98143.88;104035;1282;59734;-32
2023/12/01 05:15:28;;;;;;;133.50;44.10;;;;;;;-6.21;100.00;98136.30;104076;1281;59560;-30
2023/12/01 05:17:55;;;;;;;156.00;50.30;;;;;;;-6.17;100.00;98134.98;104037;1282;70295;-30
2023/12/01 05:20:23;;;;;;;145.40;47.20;;;;;;;-6.25;100.00;98144.69;103963;1284;66653;-30
2023/12/01 05:22:51;;;;;;;150.70;48.70;;;;;;;-6.30;100.00;98144.52;103932;1284;70822;-32
2023/12/01 05:25:18;;;;;;;186.60;60.30;;;;;;;-6.30;100.00;98134.04;103989;1280;59650;-32
2023/12/01 05:27:46;;;;;;;347.60;127.90;;;;;;;-6.24;100.00;98131.55;103926;1284;59733;-31
2023/12/01 05:30:13;;;;;;;412.70;111.90;;;;;;;-6.14;100.00;98143.76;104153;1282;59568;-30
2023/12/01 05:32:41;;;;;;;304.20;85.80;;;;;;;-6.19;100.00;98152.36;103960;1280;72034;-31
2023/12/01 05:35:10;;;;;;;260.00;77.60;;;;;;;-6.31;100.00;98153.65;104067;1284;68292;-32
2023/12/01 05:37:41;;;;;;;299.20;82.90;;;;;;;-6.35;100.00;98143.52;103974;1284;71006;-30
2023/12/01 05:40:10;;;;;;;250.10;73.20;;;;;;;-6.35;100.00;98141.73;104162;1282;59669;-33
2023/12/01 05:42:36;;;;;;;260.10;73.40;;;;;;;-6.29;100.00;98139.02;103972;1284;59720;-33
2023/12/01 05:45:04;;;;;;;237.40;68.30;;;;;;;-6.18;100.00;98137.33;104153;1282;59629;-33
2023/12/01 05:47:30;;;;;;;283.80;81.60;;;;;;;-6.12;100.00;98141.88;104027;1280;70825;-31
2023/12/01 05:49:56;;;;;;;264.50;82.00;;;;;;;-6.05;100.00;98141.85;104078;1284;60985;-40
2023/12/01 05:52:22;;;;;;;299.30;84.80;;;;;;;-5.92;100.00;98134.17;104023;1298;60853;-31
2023/12/01 05:54:49;;;;;;;356.10;93.60;;;;;;;-5.90;100.00;98133.64;103926;1284;60631;-30
2023/12/01 05:57:15;;;;;;;255.00;84.10;;;;;;;-6.02;100.00;98138.65;104023;1285;60870;-32
2023/12/01 05:59:42;;;;;;;257.80;79.50;;;;;;;-6.15;100.00;98140.86;103914;1287;60605;-32
2023/12/01 06:02:11;;;;;;;247.70;79.60;;;;;;;-6.18;100.00;98137.83;103957;1280;72726;-31
2023/12/01 06:04:38;;;;;;;247.80;75.10;;;;;;;-6.12;100.00;98141.82;103989;1284;67629;-34
2023/12/01 06:07:07;;;;;;;247.10;78.90;;;;;;;-6.03;100.00;98150.36;103875;1286;72546;-34
2023/12/01 06:09:35;;;;;;;301.10;92.10;;;;;;;-5.97;100.00;98153.21;103956;1282;59613;-32
2023/12/01 06:12:01;;;;;;;244.20;77.90;;;;;;;-5.91;100.00;98137.85;104043;1282;59660;-32
2023/12/01 06:14:27;;;;;;;236.80;78.50;;;;;;;-5.93;100.00;98127.29;104045;1282;60147;-33
2023/12/01 06:16:52;;;;;;;;;;;;;;;-5.97;100.00;98130.73;104128;1284;60008;-31
2023/12/01 06:19:20;;;;;;;280.70;80.30;;;;;;;-5.96;100.00;98141.65;103981;1291;59764;-31
2023/12/01 06:21:46;;;;;;;285.50;85.50;;;;;;;-5.95;100.00;98148.67;104054;1284;60754;-30
2023/12/01 06:24:11;;;;;;;219.30;73.30;;;;;;;-6.03;100.00;98149.36;104072;1284;60408;-31
2023/12/01 06:26:39;;;;;;;228.20;79.80;;;;;;;-6.12;100.00;98148.09;103960;1300;60898;-33
2023/12/01 06:29:06;;;;;;;195.80;65.30;;;;;;;-6.16;100.00;98149.98;103990;1282;60789;-31
2023/12/01 06:31:32;;;;;;;325.60;116.90;;;;;;;-6.15;100.00;98146.26;104001;1284;72579;-33
2023/12/01 06:33:58;;;;;;;395.50;158.20;;;;;;;-6.09;100.00;98146.88;103970;1284;60294;-34
2023/12/01 06:36:23;;;;;;;459.50;140.50;;;;;;;-6.21;100.00;98152.00;103972;1282;60054;-34
2023/12/01 06:38:49;;;;;;;411.30;126.30;;;;;;;-6.25;100.00;98150.59;104011;1284;61030;-33
2023/12/01 06:41:15;;;;;;;374.10;108.10;;;;;;;-6.14;100.00;98143.77;104033;1284;60515;-30
2023/12/01 06:43:42;;;;;;;319.00;91.00;;;;;;;-6.12;100.00;98148.14;103978;1284;60577;-29
2023/12/01 06:46:07;;;;;;;;;;;;;;;-6.12;100.00;98154.20;104011;1284;60432;-31
2023/12/01 06:48:33;;;;;;;226.00;68.90;;;;;;;-6.12;100.00;98151.10;103925;1285;60568;-32
2023/12/01 06:50:59;;;;;;;295.20;89.40;;;;;;;-6.14;100.00;98160.48;104033;1297;60566;-32
2023/12/01 06:53:25;;;;;;;283.80;79.30;;;;;;;-6.15;100.00;98152.19;103995;1284;60495;-29
2023/12/01 06:55:51;;;;;;;284.60;77.30;;;;;;;-6.08;100.00;98159.02;103840;1287;60554;-30
2023/12/01 06:58:17;;;;;;;228.60;64.90;;;;;;;-6.02;100.00;98155.37;103967;1282;60578;-31
2023/12/01 07:00:43;;;;;;;263.20;73.90;;;;;;;-5.93;100.00;98157.73;103799;1282;66700;-33
2023/12/01 07:03:09;;;;;;;;;;;;;;;-5.86;100.00;98162.23;103678;1282;60638;-29
2023/12/01 07:05:35;;;;;;;222.00;66.90;;;;;;;-5.78;100.00;98165.94;103881;1284;60572;-33
2023/12/01 07:08:03;;;;;;;245.70;74.40;;;;;;;-5.71;100.00;98168.36;104089;1284;60518;-33
2023/12/01 07:10:29;;;;;;;224.60;70.10;;;;;;;-5.59;100.00;98172.29;104020;1282;60504;-38
2023/12/01 07:12:55;;;;;;;;;;;;;;;-5.57;100.00;98168.04;104051;1284;60454;-30
2023/12/01 07:15:22;;;;;;;270.70;79.40;;;;;;;-5.57;100.00;98167.03;104027;1284;60557;-31
2023/12/01 07:17:56;;;;;;;245.60;75.20;;;;;;;-5.53;100.00;98169.98;104012;1284;70219;-34
2023/12/01 07:20:22;;;;;;;227.10;65.70;;;;;;;-5.48;100.00;98161.42;103931;1282;60448;-30
2023/12/01 07:22:49;;;;;;;224.20;67.30;;;;;;;-5.47;100.00;98158.92;103978;1282;60468;-30
2023/12/01 07:25:22;;;;;;;225.20;70.60;;;;;;;-5.39;100.00;98167.48;103981;1282;60371;-32
2023/12/01 07:27:53;;;;;;;240.90;76.60;;;;;;;-5.32;100.00;98167.60;103958;1283;72671;-33
2023/12/01 07:30:19;;;;;;;214.30;69.70;;;;;;;-5.14;100.00;98162.58;103994;1284;66482;-30
2023/12/01 07:32:45;;;;;;;221.80;65.10;;;;;;;-5.09;100.00;98165.33;104096;1284;60445;-31
2023/12/01 07:35:12;;;;;;;222.20;69.50;;;;;;;-5.05;100.00;98165.88;103982;1284;60488;-32
2023/12/01 07:37:42;;;;;;;218.80;65.70;;;;;;;-4.99;100.00;98173.88;104032;1282;60550;-32
2023/12/01 07:40:11;;;;;;;215.00;67.20;;;;;;;-4.93;100.00;98179.13;103958;1280;60381;-30
2023/12/01 07:42:38;;;;;;;242.80;66.20;;;;;;;-5.06;100.00;98177.61;104125;1280;72396;-32
2023/12/01 07:45:05;;;;;;;268.70;78.40;;;;;;;-5.08;100.00;98176.25;103955;1280;67860;-32
2023/12/01 07:47:31;;;;;;;222.10;65.70;;;;;;;-5.12;100.00;98178.66;103809;1282;71625;-31
2023/12/01 07:49:57;;;;;;;235.10;67.90;;;;;;;-5.15;100.00;98184.46;103126;1282;1002890;-33
2023/12/01 07:52:23;;;;;;;236.00;69.50;;;;;;;-5.06;100.00;98181.33;103924;1282;61257;-30
2023/12/01 07:54:49;;;;;;;269.70;79.70;;;;;;;-4.99;100.00;98182.31;104006;1284;60550;-32
2023/12/01 07:57:14;;;;;;;297.00;84.50;;;;;;;-4.92;100.00;98178.38;103957;1284;60482;-30
2023/12/01 07:59:40;;;;;;;299.30;86.60;;;;;;;-4.86;100.00;98185.00;103978;1285;60564;-35
2023/12/01 08:02:06;;;;;;;316.40;87.60;;;;;;;-4.83;100.00;98188.27;104007;1284;60469;-32
2023/12/01 08:04:32;;;;;;;284.20;80.70;;;;;;;-4.79;100.00;98186.39;102443;1284;1002970;-33
2023/12/01 08:06:58;;;;;;;327.00;96.10;;;;;;;-4.78;100.00;98191.34;103103;1284;1003547;-31
2023/12/01 08:09:24;;;;;;;328.20;96.10;;;;;;;-4.73;100.00;98196.83;103967;1284;60562;-31
2023/12/01 08:11:50;;;;;;;268.10;81.20;;;;;;;-4.54;100.00;98204.83;103992;1284;66426;-32
2023/12/01 08:14:16;;;;;;;264.80;84.10;;;;;;;-4.47;100.00;98207.57;103884;1281;60566;-30
2023/12/01 08:16:44;;;;;;;273.70;94.00;;;;;;;-4.39;100.00;98208.27;102917;1281;1003474;-32
2023/12/01 08:19:10;;;;;;;271.10;106.50;;;;;;;-4.24;100.00;98210.33;103177;1282;1003684;-30
2023/12/01 08:21:36;;;;;;;249.40;89.90;;;;;;;-4.07;100.00;98214.61;103871;1280;60504;-30
2023/12/01 08:24:04;;;;;;;224.60;81.30;;;;;;;-3.93;100.00;98214.47;103813;1282;61227;-31
2023/12/01 08:26:31;;;;;;;276.50;109.30;;;;;;;-3.82;100.00;98218.85;103878;1282;60563;-32
2023/12/01 08:28:57;;;;;;;235.10;79.60;;;;;;;-3.80;100.00;98221.51;103769;1284;72542;-31
2023/12/01 08:31:24;;;;;;;224.70;65.70;;;;;;;-3.77;100.00;98226.67;103895;1281;60588;-32
2023/12/01 08:33:50;;;;;;;192.60;57.40;;;;;;;-3.76;100.00;98234.96;103880;1282;60555;-30
2023/12/01 08:36:15;;;;;;;198.50;62.60;;;;;;;-3.80;100.00;98241.44;104026;1282;60461;-33
2023/12/01 08:38:42;;;;;;;183.00;55.40;;;;;;;-3.81;100.00;98245.06;103776;1282;60875;-33
2023/12/01 08:41:07;;;;;;;216.60;57.90;;;;;;;-3.80;100.00;98256.80;103231;1282;1003668;-32
2023/12/01 08:43:34;;;;;;;180.90;54.80;;;;;;;-3.79;100.00;98254.45;103883;1282;60566;-31
2023/12/01 08:46:00;;;;;;;192.30;55.50;;;;;;;-3.71;100.00;98243.26;104004;1284;60579;-31
2023/12/01 08:48:25;;;;;;;296.40;92.80;;;;;;;-3.53;100.00;98234.46;103975;1284;60981;-30
2023/12/01 08:50:51;;;;;;;256.70;78.30;;;;;;;-3.39;100.00;98244.67;103810;1284;60600;-33
2023/12/01 08:53:18;;;;;;;326.40;102.20;;;;;;;-3.21;100.00;98244.29;103947;1284;60572;-28
2023/12/01 08:55:43;;;;;;;267.90;81.80;;;;;;;-3.16;100.00;98241.91;104080;1284;60438;-31
2023/12/01 08:58:09;;;;;;;344.20;113.00;;;;;;;-3.13;100.00;98246.89;103948;1283;60572;-32
2023/12/01 09:00:35;;;;;;;288.90;103.60;;;;;;;-3.02;100.00;98253.02;103863;1284;60518;-32
2023/12/01 09:03:01;;;;;;;239.50;82.50;;;;;;;-2.93;100.00;98254.90;103998;1280;60459;-31
2023/12/01 09:05:27;;;;;;;227.90;87.60;;;;;;;-3.01;100.00;98249.80;103989;1281;60576;-34
2023/12/01 09:07:52;;;;;;;220.90;68.70;;;;;;;-3.12;100.00;98266.02;104059;1282;60568;-30
2023/12/01 09:10:22;;;;;;;271.50;78.60;;;;;;;-3.12;100.00;98269.42;103910;1282;60541;-30
2023/12/01 09:12:51;;;;;;;320.70;94.20;;;;;;;-3.04;100.00;98273.59;103942;1284;60546;-29
2023/12/01 09:15:17;;;;;;;264.80;79.80;;;;;;;-3.04;100.00;98273.34;104037;1282;60652;-30
2023/12/01 09:17:42;;;;;;;248.00;79.00;;;;;;;-3.13;100.00;98271.16;104099;1284;60569;-31
2023/12/01 09:20:09;;;;;;;279.30;94.30;;;;;;;-3.16;100.00;98273.55;103940;1285;60577;-33
2023/12/01 09:22:36;;;;;;;256.60;88.90;;;;;;;-3.16;100.00;98266.42;102399;1285;1002710;-33
2023/12/01 09:25:02;;;;;;;241.60;80.40;;;;;;;-3.27;100.00;98267.19;103809;1282;60623;-32
2023/12/01 09:27:28;;;;;;;224.70;75.50;;;;;;;-3.23;100.00;98274.24;103660;1284;60584;-31
2023/12/01 09:29:54;;;;;;;224.50;74.20;;;;;;;-3.10;100.00;98267.73;103796;1284;60536;-33
2023/12/01 09:32:20;;;;;;;250.20;84.50;;;;;;;-2.94;100.00;98268.77;103670;1287;60740;-30
2023/12/01 09:34:46;;;;;;;229.00;81.30;;;;;;;-2.81;100.00;98270.54;103850;1282;60377;-30
2023/12/01 09:37:12;;;;;;;324.40;105.50;;;;;;;-2.73;100.00;98265.11;103743;1284;60572;-32
2023/12/01 09:39:38;;;;;;;322.50;102.70;;;;;;;-2.62;100.00;98260.23;103817;1284;61004;-31
2023/12/01 09:42:05;;;;;;;;;;;;;;;-2.51;100.00;98272.19;103787;1282;60571;-30
2023/12/01 09:44:32;;;;;;;295.00;98.70;;;;;;;-2.43;100.00;98264.83;103977;1282;60607;-32
2023/12/01 09:47:00;;;;;;;373.80;114.10;;;;;;;-2.08;100.00;98251.20;103234;1284;1002749;-30
2023/12/01 09:49:28;;;;;;;396.00;121.80;;;;;;;-1.78;100.00;98249.96;103840;1284;72592;-30
2023/12/01 09:51:54;;;;;;;383.10;116.90;;;;;;;-1.70;100.00;98249.84;103019;1284;1003600;-31
2023/12/01 09:54:20;;;;;;;288.40;93.70;;;;;;;-1.68;100.00;98262.67;103758;1283;60511;-31
2023/12/01 09:56:45;;;;;;;271.40;92.10;;;;;;;-1.46;100.00;98269.34;103808;1284;60572;-31
2023/12/01 09:59:15;;;;;;;264.20;90.30;;;;;;;-1.15;100.00;98253.29;103927;1284;60530;-32
2023/12/01 10:01:42;;;;;;;261.00;94.50;;;;;;;-0.90;100.00;98242.38;103947;1280;60463;-31
2023/12/01 10:04:08;;;;;;;251.20;90.60;;;;;;;-0.72;100.00;98246.76;103660;1286;74191;-32
2023/12/01 10:06:37;;;;;;;246.40;97.20;;;;;;;-0.68;100.00;98256.56;103821;1280;68719;-31
2023/12/01 10:09:09;;;;;;;237.60;92.50;;;;;;;-0.67;100.00;98263.96;103850;1282;72480;-34
2023/12/01 10:11:35;;;;;;;224.30;84.20;;;;;;;-0.59;100.00;98264.73;103963;1281;60555;-32
2023/12/01 10:14:06;;;;;;;220.30;85.80;;;;;;;-0.60;100.00;98264.34;103844;1284;60543;-33
2023/12/01 10:16:35;;;;;;;209.30;76.40;;;;;;;-0.62;100.00;98265.81;103779;1280;60341;-33
2023/12/01 10:19:04;;;;;;;206.70;78.20;;;;;;;-0.64;100.00;98259.52;103840;1283;74136;-32
2023/12/01 10:21:43;;;;;;;194.50;73.90;;;;;;;-0.64;100.00;98257.58;103716;1282;69419;-32
2023/12/01 10:24:20;;;;;;;192.10;72.70;;;;;;;-0.55;100.00;98250.19;103860;1282;72758;-33
2023/12/01 10:26:50;;;;;;;229.10;81.90;;;;;;;-0.49;100.00;98243.94;103777;1280;60552;-32
2023/12/01 10:29:31;;;;;;;211.50;79.50;;;;;;;-0.81;100.00;98245.58;103786;1284;60551;-35
2023/12/01 10:32:02;;;;;;;189.20;72.30;;;;;;;-1.25;100.00;98253.20;103735;1282;60448;-32
2023/12/01 10:34:28;;;;;;;190.50;73.80;;;;;;;-1.38;100.00;98250.27;103727;1281;73611;-33
2023/12/01 10:36:53;;;;;;;195.90;73.30;;;;;;;-1.43;100.00;98251.27;103791;1280;60575;-31
2023/12/01 10:39:30;;;;;;;203.60;75.30;;;;;;;-1.35;100.00;98246.86;103869;1284;60577;-33
2023/12/01 10:41:57;;;;;;;176.90;66.10;;;;;;;-1.43;100.00;98247.72;103959;1280;60447;-33
2023/12/01 10:44:24;;;;;;;188.60;67.90;;;;;;;-1.54;100.00;98256.22;103826;1282;60457;-31
2023/12/01 10:46:50;;;;;;;156.00;57.90;;;;;;;-1.35;100.00;98247.73;103832;1281;60448;-31
2023/12/01 10:49:17;;;;;;;171.00;61.70;;;;;;;-1.25;100.00;98244.78;103777;1284;60552;-33
2023/12/01 10:51:52;;;;;;;166.00;63.30;;;;;;;-1.32;100.00;98257.45;103789;1280;68686;-32
2023/12/01 10:54:21;;;;;;;183.40;68.50;;;;;;;-1.40;100.00;98257.83;103875;1284;72996;-33
2023/12/01 10:57:11;;;;;;;171.50;64.00;;;;;;;-1.28;100.00;98256.48;103910;1284;60618;-31
2023/12/01 10:59:37;;;;;;;189.60;71.80;;;;;;;-1.24;100.00;98250.86;103779;1284;60572;-33
2023/12/01 11:02:04;;;;;;;178.60;65.30;;;;;;;-1.23;100.00;98245.79;103794;1280;60483;-33
2023/12/01 11:04:32;;;;;;;164.50;62.60;;;;;;;-1.35;100.00;98247.34;103900;1284;72826;-32
2023/12/01 11:07:19;;;;;;;202.00;69.50;;;;;;;-1.43;100.00;98244.41;103872;1282;68270;-31
2023/12/01 11:10:06;;;;;;;173.60;64.90;;;;;;;-1.41;100.00;98242.67;103745;1284;72393;-34
2023/12/01 11:13:03;;;;;;;145.30;54.60;;;;;;;-1.70;100.00;98250.02;103790;1284;60572;-34
2023/12/01 11:15:29;;;;;;;189.50;81.50;;;;;;;-1.57;100.00;98247.05;103664;1282;60623;-32
2023/12/01 11:17:55;;;;;;;175.30;76.30;;;;;;;-1.61;100.00;98251.97;103753;1285;60463;-32
2023/12/01 11:20:33;;;;;;;164.70;61.40;;;;;;;-1.73;100.00;98256.45;103751;1280;60572;-33
2023/12/01 11:23:32;;;;;;;142.90;56.50;;;;;;;-1.77;100.00;98260.37;103990;1282;68803;-32
2023/12/01 11:26:10;;;;;;;208.00;69.00;;;;;;;-1.53;100.00;98252.94;103965;1282;72146;-32
2023/12/01 11:28:43;;;;;;;183.20;60.20;;;;;;;-1.58;100.00;98255.92;103780;1285;60482;-33
2023/12/01 11:31:21;;;;;;;160.30;62.00;;;;;;;-1.79;100.00;98265.42;103827;1282;60509;-35
2023/12/01 11:33:48;;;;;;;182.10;62.70;;;;;;;-1.89;100.00;98275.33;103737;1284;61878;-33
2023/12/01 11:36:28;;;;;;;179.40;64.80;;;;;;;-2.03;100.00;98283.36;103799;1284;74136;-31
2023/12/01 11:41:53;;;;;;;177.70;62.60;;;;;;;-2.12;100.00;98294.36;103703;1285;72823;-31